Time;durP1;ratioP1;P1;durP2;ratioP2;P2;SDS_P1;SDS_P2;PMS_P1;PMS_P2;Temp;Humidity;BMP_temperature;BMP_pressure;BME280_temperature;BME280_humidity;BME280_pressure;Samples;Min_cycle;Max_cycle;Signal;HPM_P1;HPM_P2
2022/06/09 00:01:12;;;;;;;4.90;3.70;;;;;;;15.62;71.67;98388.98;105144;1271;77000;-24
2022/06/09 00:03:49;;;;;;;4.40;2.50;;;;;;;15.44;72.38;98388.94;105045;1271;75335;-24
2022/06/09 00:06:16;;;;;;;3.00;2.50;;;;;;;15.95;72.03;98384.20;104637;1271;63067;-24
2022/06/09 00:08:48;;;;;;;6.10;3.20;;;;;;;16.48;70.34;98386.83;105082;1271;61867;-25
2022/06/09 00:11:17;;;;;;;6.10;3.80;;;;;;;16.48;69.43;98384.19;104750;1271;74227;-25
2022/06/09 00:13:44;;;;;;;4.20;3.10;;;;;;;16.27;70.35;98380.58;104706;1271;76048;-24
2022/06/09 00:16:12;;;;;;;5.60;4.10;;;;;;;16.04;70.40;98378.87;104693;1271;74142;-24
2022/06/09 00:18:39;;;;;;;7.00;4.90;;;;;;;15.78;71.64;98378.63;104946;1271;63031;-24
2022/06/09 00:21:07;;;;;;;8.10;4.80;;;;;;;15.52;72.11;98382.52;104824;1271;61836;-24
2022/06/09 00:23:34;;;;;;;7.90;3.40;;;;;;;15.35;71.94;98382.10;104859;1271;75280;-24
2022/06/09 00:26:02;;;;;;;6.60;3.50;;;;;;;15.70;72.13;98378.18;104998;1271;77403;-24
2022/06/09 00:28:29;;;;;;;7.10;3.90;;;;;;;16.17;70.55;98377.39;104856;1271;74194;-25
2022/06/09 00:30:56;;;;;;;8.50;5.30;;;;;;;16.19;70.20;98375.60;105082;1271;63124;-24
2022/06/09 00:33:24;;;;;;;7.20;5.20;;;;;;;16.01;70.29;98380.30;105045;1271;62997;-25
2022/06/09 00:35:52;;;;;;;13.50;5.50;;;;;;;15.79;70.51;98380.73;104910;1274;76614;-25
2022/06/09 00:38:19;;;;;;;10.20;6.70;;;;;;;15.55;71.00;98378.52;104875;1271;76760;-24
2022/06/09 00:40:46;;;;;;;13.30;5.80;;;;;;;15.28;71.73;98376.98;104786;1271;75212;-24
2022/06/09 00:43:14;;;;;;;6.40;3.80;;;;;;;14.97;72.63;98377.78;104964;1271;62818;-24
2022/06/09 00:46:04;;;;;;;10.10;5.60;;;;;;;15.27;72.71;98376.14;104807;1271;61875;-24
2022/06/09 00:48:53;;;;;;;13.50;6.50;;;;;;;15.78;71.44;98374.41;104805;1272;75556;-25
2022/06/09 00:51:44;;;;;;;8.30;6.00;;;;;;;15.77;70.63;98375.77;104964;1271;77155;-24
2022/06/09 00:54:18;;;;;;;12.40;6.60;;;;;;;15.53;71.10;98368.77;105133;1271;74405;-24
2022/06/09 00:56:53;;;;;;;8.30;6.30;;;;;;;15.28;72.03;98369.30;105166;1271;61874;-24
2022/06/09 00:59:21;;;;;;;10.00;6.40;;;;;;;15.01;73.10;98371.15;105111;1271;61690;-24
2022/06/09 01:01:49;;;;;;;6.70;4.10;;;;;;;14.77;74.14;98373.52;105116;1272;75759;-24
2022/06/09 01:04:17;;;;;;;7.60;4.40;;;;;;;15.14;73.65;98372.42;105198;1271;77017;-24
2022/06/09 01:06:47;;;;;;;8.90;5.20;;;;;;;15.61;71.75;98373.55;105140;1271;74404;-24
2022/06/09 01:09:20;;;;;;;15.40;6.20;;;;;;;15.61;70.65;98369.52;105125;1271;62917;-24
2022/06/09 01:11:48;;;;;;;10.40;6.90;;;;;;;15.39;71.38;98373.18;105139;1271;61886;-25
2022/06/09 01:14:18;;;;;;;10.50;6.00;;;;;;;15.11;71.89;98371.35;105037;1271;75251;-24
2022/06/09 01:17:15;;;;;;;9.90;6.60;;;;;;;14.88;72.49;98375.97;105123;1271;77385;-24
2022/06/09 01:19:52;;;;;;;12.40;7.00;;;;;;;14.61;72.49;98374.36;105046;1271;75063;-24
2022/06/09 01:22:34;;;;;;;8.40;4.10;;;;;;;14.42;73.89;98369.11;104938;1271;64664;-24
2022/06/09 01:25:23;;;;;;;8.40;5.00;;;;;;;14.94;73.32;98373.29;104907;1271;61813;-24
2022/06/09 01:28:21;;;;;;;9.30;4.60;;;;;;;15.44;72.25;98369.65;104529;1271;371720;-25
2022/06/09 01:30:52;;;;;;;9.30;5.90;;;;;;;15.38;71.03;98367.52;105131;1271;75728;-25
2022/06/09 01:33:28;;;;;;;11.00;5.50;;;;;;;15.14;70.86;98370.91;105176;1271;75388;-24
2022/06/09 01:36:04;;;;;;;10.00;5.70;;;;;;;14.85;71.99;98371.14;105123;1271;61774;-25
2022/06/09 01:38:46;;;;;;;9.30;5.60;;;;;;;14.59;72.61;98368.51;104787;1271;63353;-25
2022/06/09 01:41:14;;;;;;;9.10;5.80;;;;;;;14.32;73.26;98368.02;104782;1271;76542;-24
2022/06/09 01:43:43;;;;;;;5.50;3.40;;;;;;;14.16;73.80;98368.17;104721;1271;75665;-24
2022/06/09 01:46:24;;;;;;;7.10;4.00;;;;;;;14.59;74.87;98364.48;104947;1274;75873;-25
2022/06/09 01:48:53;;;;;;;8.00;4.60;;;;;;;15.15;72.15;98367.30;104876;1271;63115;-25
2022/06/09 01:51:21;;;;;;;7.50;4.50;;;;;;;15.20;71.69;98368.02;104660;1272;63015;-25
2022/06/09 01:53:52;;;;;;;6.60;4.90;;;;;;;15.01;71.66;98370.61;104627;1271;76996;-24
2022/06/09 01:56:32;;;;;;;7.70;5.30;;;;;;;14.72;72.15;98372.18;104797;1271;77001;-24
2022/06/09 01:59:23;;;;;;;6.70;5.10;;;;;;;14.42;73.02;98373.73;104798;1272;73424;-25
2022/06/09 02:02:16;;;;;;;7.30;3.30;;;;;;;14.19;74.62;98372.36;105088;1271;63334;-25
2022/06/09 02:04:46;;;;;;;5.30;3.80;;;;;;;14.74;75.36;98370.46;104740;1274;62058;-24
2022/06/09 02:07:14;;;;;;;7.90;5.00;;;;;;;15.06;73.98;98381.61;104879;1271;76558;-25
2022/06/09 02:09:41;;;;;;;9.70;6.50;;;;;;;14.84;73.39;98383.39;104889;1272;77166;-25
2022/06/09 02:12:11;;;;;;;13.40;6.40;;;;;;;14.60;75.08;98376.36;104963;1271;74358;-25
2022/06/09 02:14:45;;;;;;;10.80;5.80;;;;;;;14.38;75.39;98381.73;104837;1271;63127;-25
2022/06/09 02:17:13;;;;;;;10.20;5.90;;;;;;;14.20;73.94;98384.66;105132;1271;61846;-24
2022/06/09 02:19:41;;;;;;;7.90;5.30;;;;;;;13.93;75.17;98383.48;104933;1271;75468;-25
2022/06/09 02:22:10;;;;;;;6.20;3.60;;;;;;;13.75;77.55;98387.63;104910;1271;76288;-25
2022/06/09 02:24:37;;;;;;;3.80;3.40;;;;;;;14.38;75.79;98384.18;105007;1271;75422;-25
2022/06/09 02:27:05;;;;;;;4.90;3.70;;;;;;;15.19;73.78;98387.16;105091;1271;63113;-25
2022/06/09 02:29:33;;;;;;;4.40;3.60;;;;;;;15.47;72.15;98387.30;104842;1271;63332;-24
2022/06/09 02:32:01;;;;;;;7.40;4.70;;;;;;;15.40;71.86;98383.55;104974;1271;75507;-24
2022/06/09 02:34:28;;;;;;;7.90;4.70;;;;;;;15.23;72.08;98380.92;105101;1271;76843;-25
2022/06/09 02:36:56;;;;;;;5.00;3.60;;;;;;;15.10;71.81;98386.23;104988;1271;74172;-24
2022/06/09 02:39:23;;;;;;;7.90;4.30;;;;;;;15.04;72.22;98385.25;104961;1271;62010;-25
2022/06/09 02:41:51;;;;;;;9.70;4.20;;;;;;;15.13;71.44;98387.41;104738;1274;63081;-24
2022/06/09 02:44:18;;;;;;;13.20;5.40;;;;;;;15.81;70.48;98390.18;104963;1272;76629;-24
2022/06/09 02:46:46;;;;;;;11.50;5.20;;;;;;;16.67;68.33;98395.61;105080;1271;75807;-25
2022/06/09 02:49:14;;;;;;;8.40;5.40;;;;;;;17.02;67.13;98401.27;105076;1274;75665;-25
2022/06/09 02:51:42;;;;;;;10.00;5.50;;;;;;;17.07;66.77;98405.09;105163;1271;62025;-24
2022/06/09 02:54:13;;;;;;;5.90;4.40;;;;;;;17.03;66.82;98398.92;104819;1271;61725;-24
2022/06/09 02:56:42;;;;;;;10.30;6.70;;;;;;;16.96;66.90;98397.66;104853;1272;76829;-25
2022/06/09 02:59:10;;;;;;;5.60;4.40;;;;;;;16.93;67.19;98403.92;104842;1271;76454;-24
2022/06/09 03:01:38;;;;;;;4.60;3.50;;;;;;;16.87;67.05;98404.98;104694;1271;74340;-24
2022/06/09 03:04:06;;;;;;;4.90;2.30;;;;;;;16.68;67.70;98409.32;104850;1271;64666;-24
2022/06/09 03:06:34;;;;;;;4.70;2.70;;;;;;;17.05;67.77;98420.02;105060;1271;63127;-24
2022/06/09 03:09:01;;;;;;;4.20;3.20;;;;;;;17.49;66.25;98418.13;105040;1272;75581;-24
2022/06/09 03:11:28;;;;;;;3.00;2.50;;;;;;;17.46;66.18;98413.85;104809;1271;77043;-24
2022/06/09 03:13:56;;;;;;;4.30;3.10;;;;;;;17.20;66.25;98412.50;104845;1271;74701;-24
2022/06/09 03:16:23;;;;;;;8.10;3.20;;;;;;;16.93;67.13;98414.16;104881;1271;61068;-24
2022/06/09 03:18:51;;;;;;;5.80;3.60;;;;;;;16.65;67.92;98414.24;105094;1271;62856;-24
2022/06/09 03:21:18;;;;;;;4.40;3.90;;;;;;;16.48;68.46;98410.27;105009;1271;75554;-24
2022/06/09 03:23:45;;;;;;;4.30;3.60;;;;;;;16.36;68.72;98415.59;104961;1271;76992;-24
2022/06/09 03:26:12;;;;;;;4.50;2.30;;;;;;;16.26;68.77;98416.61;105185;1271;74068;-24
2022/06/09 03:28:41;;;;;;;3.70;2.50;;;;;;;16.68;68.62;98418.57;105121;1271;61950;-24
2022/06/09 03:31:08;;;;;;;3.70;3.40;;;;;;;17.29;67.56;98419.00;104948;1274;61611;-24
2022/06/09 03:33:37;;;;;;;2.80;2.50;;;;;;;17.48;66.21;98415.41;104923;1271;76318;-24
2022/06/09 03:36:05;;;;;;;4.70;2.90;;;;;;;17.39;65.90;98420.48;104891;1271;76996;-24
2022/06/09 03:38:33;;;;;;;3.30;3.00;;;;;;;17.29;66.53;98420.05;104849;1271;74275;-24
2022/06/09 03:41:00;;;;;;;6.80;2.90;;;;;;;17.21;66.52;98420.48;104833;1271;63072;-24
2022/06/09 03:43:27;;;;;;;7.40;3.20;;;;;;;17.12;66.36;98421.55;104867;1270;63364;-24
2022/06/09 03:45:55;;;;;;;3.70;3.00;;;;;;;17.02;66.45;98419.71;104997;1271;76527;-24
2022/06/09 03:48:23;;;;;;;3.20;2.80;;;;;;;16.94;67.17;98418.91;105006;1272;77092;-24
2022/06/09 03:50:50;;;;;;;4.10;2.40;;;;;;;16.92;66.72;98416.40;105142;1271;74455;-24
2022/06/09 03:53:17;;;;;;;3.60;1.90;;;;;;;17.48;66.61;98417.51;104900;1271;61146;-24
2022/06/09 03:55:45;;;;;;;3.40;1.80;;;;;;;18.23;64.25;98411.82;104825;1271;61700;-24
2022/06/09 03:58:12;;;;;;;4.60;2.40;;;;;;;18.52;63.38;98404.90;105026;1272;77167;-24
2022/06/09 04:00:40;;;;;;;5.10;2.40;;;;;;;18.78;63.01;98406.48;104983;1271;74705;-24
2022/06/09 04:03:07;;;;;;;4.50;2.80;;;;;;;19.08;61.83;98406.22;104825;1271;73614;-24
2022/06/09 04:05:36;;;;;;;2.70;2.40;;;;;;;19.14;61.86;98405.77;105122;1271;62779;-24
2022/06/09 04:08:04;;;;;;;4.10;2.20;;;;;;;19.08;62.01;98404.77;105106;1271;61974;-25
2022/06/09 04:10:32;;;;;;;5.50;2.00;;;;;;;19.02;62.10;98401.84;105161;1271;75642;-24
2022/06/09 04:12:59;;;;;;;4.60;2.40;;;;;;;18.96;62.24;98397.15;104657;1274;77010;-24
2022/06/09 04:15:27;;;;;;;3.20;2.60;;;;;;;18.95;62.63;98402.82;104923;1271;75335;-24
2022/06/09 04:17:54;;;;;;;8.20;5.60;;;;;;;18.87;63.15;98406.30;105055;1271;62052;-24
2022/06/09 04:20:24;;;;;;;4.70;4.00;;;;;;;18.62;63.40;98410.65;105122;1271;62037;-24
2022/06/09 04:22:52;;;;;;;5.10;3.20;;;;;;;18.59;62.52;98408.19;105097;1272;76333;-24
2022/06/09 04:25:20;;;;;;;6.40;3.00;;;;;;;18.58;62.07;98399.17;105098;1274;77115;-24
2022/06/09 04:27:47;;;;;;;3.30;2.40;;;;;;;18.76;61.20;98393.92;104811;1271;74358;-24
2022/06/09 04:30:15;;;;;;;5.30;2.60;;;;;;;18.90;62.08;98394.67;104844;1271;63381;-24
2022/06/09 04:32:51;;;;;;;4.00;2.20;;;;;;;19.05;62.10;98398.25;104876;1271;61642;-24
2022/06/09 04:35:18;;;;;;;4.40;2.30;;;;;;;19.19;61.44;98392.83;104952;1271;75319;-24
2022/06/09 04:38:01;;;;;;;4.80;2.70;;;;;;;19.52;61.76;98393.86;104942;1271;75868;-24
2022/06/09 04:40:39;;;;;;;3.60;2.50;;;;;;;20.03;60.29;98391.05;105140;1274;73821;-24
2022/06/09 04:43:08;;;;;;;4.80;2.50;;;;;;;20.51;59.74;98392.23;104930;1272;62042;-24
2022/06/09 04:45:37;;;;;;;4.10;2.40;;;;;;;21.07;58.64;98390.25;104799;1271;61482;-24
2022/06/09 04:48:05;;;;;;;2.90;2.30;;;;;;;21.39;57.43;98393.00;105088;1271;76326;-24
2022/06/09 04:50:33;;;;;;;3.20;2.10;;;;;;;21.56;57.04;98392.30;104676;1271;76956;-23
2022/06/09 04:53:00;;;;;;;3.00;2.70;;;;;;;21.93;56.10;98395.52;104721;1271;75410;-24
2022/06/09 04:55:28;;;;;;;3.80;2.30;;;;;;;22.27;54.17;98391.22;104791;1271;62761;-24
2022/06/09 04:57:55;;;;;;;19.80;2.70;;;;;;;22.44;53.45;98385.61;104796;1271;63150;-24
2022/06/09 05:00:22;;;;;;;6.10;2.20;;;;;;;22.57;53.90;98389.77;104822;1271;76217;-24
2022/06/09 05:02:51;;;;;;;4.30;2.50;;;;;;;22.61;53.78;98387.83;104849;1271;75238;-23
2022/06/09 05:05:24;;;;;;;3.30;2.40;;;;;;;22.71;54.70;98391.52;104871;1271;74382;-24
2022/06/09 05:07:51;;;;;;;20.80;4.50;;;;;;;22.87;54.36;98392.69;104749;1271;62014;-23
2022/06/09 05:10:19;;;;;;;4.60;3.10;;;;;;;22.95;53.50;98392.21;104855;1271;63089;-23
2022/06/09 05:12:46;;;;;;;8.30;3.10;;;;;;;23.13;51.91;98389.90;104862;1271;75673;-24
2022/06/09 05:15:15;;;;;;;4.90;3.10;;;;;;;23.35;52.26;98390.48;104817;1271;76144;-24
2022/06/09 05:17:43;;;;;;;3.50;2.40;;;;;;;23.57;51.49;98389.59;104785;1274;75411;-24
2022/06/09 05:20:12;;;;;;;4.10;2.80;;;;;;;23.88;51.93;98390.22;104775;1274;61997;-24
2022/06/09 05:22:39;;;;;;;8.60;3.00;;;;;;;24.23;51.01;98393.48;104736;1274;61915;-23
2022/06/09 05:25:08;;;;;;;5.50;2.80;;;;;;;24.58;48.56;98392.79;104831;1271;76366;-24
2022/06/09 05:27:35;;;;;;;4.60;2.90;;;;;;;24.93;48.18;98390.64;104687;1274;77226;-23
2022/06/09 05:30:08;;;;;;;3.20;2.60;;;;;;;25.25;47.45;98393.77;104812;1271;74297;-23
2022/06/09 05:32:35;;;;;;;4.10;2.40;;;;;;;25.61;46.60;98397.79;104792;1271;61955;-23
2022/06/09 05:35:05;;;;;;;4.20;2.50;;;;;;;25.82;46.41;98398.22;104791;1271;62059;-23
2022/06/09 05:45:50;;;;;;;4.70;2.30;;;;;;;26.61;43.65;98397.34;104788;1271;62861;-23
2022/06/09 05:48:19;;;;;;;4.30;2.10;;;;;;;26.12;45.51;98403.27;104832;1271;60987;-23
2022/06/09 05:50:47;;;;;;;2.40;2.00;;;;;;;26.26;46.38;98403.30;104911;1271;75207;-25
2022/06/09 05:53:14;;;;;;;2.70;2.30;;;;;;;26.44;45.91;98406.40;105108;1271;76745;-24
2022/06/09 05:55:41;;;;;;;3.70;2.30;;;;;;;26.51;46.16;98409.91;104860;1271;74334;-25
2022/06/09 05:58:10;;;;;;;4.60;2.20;;;;;;;26.81;45.33;98405.41;104815;1271;61985;-25
2022/06/09 06:00:38;;;;;;;3.90;2.00;;;;;;;27.13;44.45;98408.37;104889;1271;61718;-24
2022/06/09 06:03:12;;;;;;;8.70;2.50;;;;;;;27.52;42.94;98411.91;104655;1274;75546;-23
2022/06/09 06:08:26;;;;;;;7.60;2.40;;;;;;;28.14;41.17;98406.97;104830;1271;74213;-24
2022/06/09 06:10:53;;;;;;;4.80;2.10;;;;;;;28.22;42.82;98410.45;104822;1271;61750;-25
2022/06/09 06:13:20;;;;;;;4.80;2.20;;;;;;;28.58;42.19;98411.60;104849;1271;61378;-24
2022/06/09 06:15:48;;;;;;;7.80;2.40;;;;;;;28.90;41.27;98411.73;104741;1271;76626;-24
2022/06/09 06:18:15;;;;;;;5.20;2.50;;;;;;;29.11;40.33;98409.02;104854;1271;77103;-24
2022/06/09 06:20:43;;;;;;;5.20;2.40;;;;;;;29.22;40.31;98407.38;104879;1271;75382;-24
2022/06/09 06:23:10;;;;;;;6.60;2.40;;;;;;;29.45;39.33;98409.98;104843;1271;61951;-24
2022/06/09 06:25:37;;;;;;;3.70;2.10;;;;;;;29.70;37.26;98409.34;104821;1271;61586;-24
2022/06/09 06:28:05;;;;;;;7.50;2.90;;;;;;;29.68;34.86;98408.15;104851;1270;75337;-24
2022/06/09 06:30:32;;;;;;;7.10;2.40;;;;;;;29.91;36.44;98410.01;104878;1271;76016;-24
2022/06/09 06:33:00;;;;;;;5.10;2.80;;;;;;;30.03;36.35;98409.32;104761;1274;74625;-24
2022/06/09 06:35:27;;;;;;;4.10;2.20;;;;;;;30.07;37.70;98411.41;104864;1271;62414;-24
2022/06/09 06:37:55;;;;;;;5.00;2.20;;;;;;;30.18;37.47;98413.08;104753;1274;63000;-22
2022/06/09 06:40:22;;;;;;;3.30;2.50;;;;;;;30.37;36.52;98411.92;104834;1271;75491;-24
2022/06/09 06:42:49;;;;;;;3.60;2.20;;;;;;;30.45;34.49;98406.70;104747;1271;77058;-24
2022/06/09 06:45:16;;;;;;;2.70;2.00;;;;;;;30.26;33.94;98410.37;104855;1271;74290;-23
2022/06/09 06:47:44;;;;;;;4.70;2.20;;;;;;;30.29;34.25;98409.95;104665;1274;62841;-22
2022/06/09 06:50:11;;;;;;;3.40;2.00;;;;;;;30.46;34.32;98405.61;104847;1271;62827;-24
2022/06/09 06:52:39;;;;;;;2.50;1.80;;;;;;;30.62;33.01;98407.59;104745;1271;75564;-23
2022/06/09 06:55:08;;;;;;;3.10;1.90;;;;;;;30.30;32.87;98406.88;105080;1271;76085;-22
2022/06/09 06:57:35;;;;;;;5.80;2.00;;;;;;;30.08;34.97;98405.08;105079;1271;75676;-23
2022/06/09 07:00:05;;;;;;;2.80;1.70;;;;;;;30.07;33.67;98406.31;105056;1270;62051;-23
2022/06/09 07:02:32;;;;;;;3.60;1.90;;;;;;;30.21;34.68;98410.16;104809;1271;63115;-23
2022/06/09 07:05:20;;;;;;;4.60;1.50;;;;;;;30.38;32.56;98408.65;105047;1271;76612;-23
2022/06/09 07:07:47;;;;;;;3.00;1.50;;;;;;;30.58;33.38;98409.91;104853;1272;77010;-23
2022/06/09 07:10:15;;;;;;;2.60;1.40;;;;;;;30.88;34.50;98412.17;104957;1271;74363;-23
2022/06/09 07:12:42;;;;;;;2.20;1.20;;;;;;;31.01;34.50;98415.02;104739;1271;62828;-24
2022/06/09 07:15:11;;;;;;;1.70;1.40;;;;;;;30.96;35.08;98411.39;104675;1271;61978;-23
2022/06/09 07:17:38;;;;;;;3.50;1.30;;;;;;;30.57;34.57;98414.09;104961;1271;76677;-24
2022/06/09 07:20:07;;;;;;;2.90;1.50;;;;;;;30.27;34.47;98415.70;104813;1271;77148;-23
2022/06/09 07:22:34;;;;;;;4.40;1.70;;;;;;;30.16;35.25;98415.38;104683;1271;75433;-23
2022/06/09 07:25:03;;;;;;;2.00;1.60;;;;;;;30.13;34.74;98413.55;104931;1271;61775;-23
2022/06/09 07:27:30;;;;;;;2.80;1.60;;;;;;;30.19;34.81;98415.38;104758;1272;63060;-23
2022/06/09 07:29:57;;;;;;;3.00;1.70;;;;;;;30.20;35.54;98415.60;104838;1271;75622;-24
2022/06/09 07:32:25;;;;;;;3.90;1.90;;;;;;;30.24;35.21;98419.61;104818;1271;77003;-23
2022/06/09 07:34:52;;;;;;;3.90;1.70;;;;;;;30.19;34.74;98420.27;104797;1271;75227;-24
2022/06/09 07:37:19;;;;;;;4.40;1.80;;;;;;;30.17;34.38;98418.01;104711;1271;62751;-24
2022/06/09 07:39:46;;;;;;;2.20;1.50;;;;;;;30.18;34.93;98420.80;104788;1271;61675;-23
2022/06/09 07:42:14;;;;;;;3.90;1.30;;;;;;;30.25;34.48;98422.52;104793;1271;74488;-22
2022/06/09 07:44:41;;;;;;;3.80;1.60;;;;;;;30.34;35.66;98421.48;105083;1271;77093;-22
2022/06/09 07:47:08;;;;;;;1.80;1.30;;;;;;;30.52;34.73;98424.08;104997;1271;74398;-22
2022/06/09 07:49:36;;;;;;;1.50;1.40;;;;;;;30.64;34.81;98424.08;104796;1271;62021;-22
2022/06/09 07:52:04;;;;;;;2.50;1.40;;;;;;;30.76;34.06;98421.20;104809;1271;61749;-22
2022/06/09 07:54:31;;;;;;;1.70;1.40;;;;;;;30.70;34.06;98420.89;104820;1271;75436;-22
2022/06/09 07:56:59;;;;;;;2.50;1.20;;;;;;;30.79;34.36;98422.16;104799;1271;76029;-22
2022/06/09 07:59:26;;;;;;;4.10;1.70;;;;;;;30.89;32.27;98422.81;104794;1271;74119;-22
2022/06/09 08:01:53;;;;;;;3.00;1.20;;;;;;;30.99;33.40;98417.40;104794;1271;62010;-23
2022/06/09 08:04:29;;;;;;;5.30;1.50;;;;;;;31.07;32.62;98415.65;104766;1271;61831;-22
2022/06/09 08:06:56;;;;;;;2.90;1.40;;;;;;;31.12;32.03;98417.67;104838;1271;75778;-22
2022/06/09 08:09:23;;;;;;;2.40;1.20;;;;;;;31.31;32.02;98423.89;104905;1271;76197;-22
2022/06/09 08:11:51;;;;;;;4.20;1.50;;;;;;;31.55;31.39;98417.73;105094;1271;74748;-22
2022/06/09 08:14:18;;;;;;;3.40;1.50;;;;;;;31.64;30.01;98417.13;105074;1271;61916;-23
2022/06/09 08:16:46;;;;;;;3.70;1.30;;;;;;;31.68;30.71;98417.48;104767;1271;63330;-23
2022/06/09 08:19:13;;;;;;;3.60;1.50;;;;;;;31.75;30.11;98417.94;104852;1271;76553;-23
2022/06/09 08:21:41;;;;;;;1.90;1.10;;;;;;;31.75;30.48;98416.66;104822;1271;75821;-22
2022/06/09 08:24:21;;;;;;;2.30;1.30;;;;;;;31.78;31.13;98423.09;104766;1272;75141;-23
2022/06/09 08:26:49;;;;;;;1.80;1.30;;;;;;;31.91;30.70;98421.80;104878;1271;62984;-23
2022/06/09 08:29:23;;;;;;;3.80;1.60;;;;;;;32.03;29.22;98421.81;104710;1272;63177;-23
2022/06/09 08:31:50;;;;;;;1.90;1.40;;;;;;;32.10;31.18;98418.52;104825;1271;75421;-23
2022/06/09 08:34:18;;;;;;;5.10;1.60;;;;;;;32.38;30.31;98417.41;104764;1271;77030;-23
2022/06/09 08:36:45;;;;;;;5.20;1.80;;;;;;;31.94;29.23;98416.48;104791;1271;74246;-24
2022/06/09 08:39:12;;;;;;;3.00;1.50;;;;;;;31.01;29.97;98419.20;104768;1271;62111;-23
2022/06/09 08:42:00;;;;;;;6.80;1.60;;;;;;;30.65;33.36;98422.34;104807;1272;62783;-23
2022/06/09 08:44:36;;;;;;;2.80;1.50;;;;;;;31.34;31.91;98423.50;104661;1274;75568;-23
2022/06/09 08:47:41;;;;;;;2.00;1.60;;;;;;;31.78;31.28;98419.95;104622;1275;77079;-23
2022/06/09 08:50:17;;;;;;;2.00;1.40;;;;;;;32.31;30.22;98413.77;104543;1274;74092;-23
2022/06/09 08:52:51;;;;;;;2.50;1.50;;;;;;;32.59;29.60;98414.79;104531;1274;63038;-23
2022/06/09 08:55:24;;;;;;;2.50;1.70;;;;;;;32.26;27.99;98412.52;104715;1274;62049;-23
2022/06/09 08:57:53;;;;;;;2.80;1.60;;;;;;;31.79;28.22;98416.88;104566;1275;76325;-23
2022/06/09 09:00:23;;;;;;;8.30;1.60;;;;;;;31.43;28.38;98417.52;104438;1275;76984;-23
2022/06/09 09:02:53;;;;;;;6.30;1.40;;;;;;;31.21;29.17;98423.13;104592;1274;74132;-23
2022/06/09 09:05:23;;;;;;;4.90;1.50;;;;;;;31.15;29.93;98427.24;104590;1274;62126;-23
2022/06/09 09:08:02;;;;;;;9.10;1.50;;;;;;;30.99;29.18;98428.63;104737;1274;62191;-23
2022/06/09 09:10:52;;;;;;;1.80;1.20;;;;;;;30.88;29.31;98431.42;104637;1274;76619;-23
2022/06/09 09:13:31;;;;;;;2.30;1.60;;;;;;;31.00;29.31;98428.20;104513;1274;77066;-23
2022/06/09 09:16:04;;;;;;;2.40;1.40;;;;;;;31.52;28.74;98422.15;104656;1271;73739;-23
2022/06/09 09:18:35;;;;;;;1.50;1.30;;;;;;;31.94;28.25;98414.50;104687;1271;61822;-23
2022/06/09 09:21:12;;;;;;;2.30;1.20;;;;;;;32.42;26.95;98410.27;105093;1271;61686;-23
2022/06/09 09:24:03;;;;;;;2.00;1.50;;;;;;;32.82;27.82;98408.66;105099;1271;74504;-23
2022/06/09 09:26:55;;;;;;;4.00;1.30;;;;;;;33.13;27.30;98406.39;105050;1271;77041;-24
2022/06/09 09:29:27;;;;;;;3.10;1.60;;;;;;;33.37;25.24;98404.66;104709;1271;74812;-23
2022/06/09 09:31:56;;;;;;;;;;;;;;;33.32;24.92;98407.70;104686;1271;63076;-23
2022/06/09 09:34:29;;;;;;;2.50;1.60;;;;;;;33.49;26.95;98412.25;104944;1271;62426;-23
2022/06/09 09:37:03;;;;;;;3.50;1.80;;;;;;;33.65;25.94;98409.02;104793;1271;76513;-23
2022/06/09 09:39:45;;;;;;;2.90;1.70;;;;;;;33.34;27.86;98415.92;104637;1271;77036;-23
2022/06/09 09:42:21;;;;;;;2.60;1.70;;;;;;;33.68;26.67;98414.00;104757;1271;75497;-23
2022/06/09 09:45:10;;;;;;;3.70;1.60;;;;;;;33.49;25.49;98414.00;104696;1271;62558;-23
2022/06/09 09:47:53;;;;;;;3.60;1.70;;;;;;;33.24;26.80;98411.91;105015;1271;62239;-24
2022/06/09 09:50:51;;;;;;;4.20;1.70;;;;;;;33.30;26.94;98413.88;104818;1271;75405;-23
2022/06/09 09:53:18;;;;;;;2.90;1.60;;;;;;;33.81;26.26;98407.96;105007;1271;76023;-23
2022/06/09 09:56:18;;;;;;;3.30;1.80;;;;;;;34.03;26.08;98406.66;105125;1271;75478;-23
2022/06/09 09:58:48;;;;;;;3.40;1.60;;;;;;;33.72;26.30;98414.48;104709;1271;62059;-24
2022/06/09 10:01:22;;;;;;;2.40;1.20;;;;;;;33.34;25.78;98411.40;104755;1272;61962;-23
2022/06/09 10:09:50;;;;;;;2.60;1.40;;;;;;;33.51;26.65;98399.67;104916;1271;74420;-23
2022/06/09 10:12:35;;;;;;;3.40;1.60;;;;;;;33.59;26.15;98400.48;104746;1271;62947;-24
2022/06/09 10:15:08;;;;;;;2.90;1.50;;;;;;;34.00;25.46;98404.42;104884;1271;61988;-23
2022/06/09 10:17:57;;;;;;;2.70;1.80;;;;;;;34.25;24.58;98400.55;104852;1271;75485;-23
2022/06/09 10:20:43;;;;;;;5.90;1.70;;;;;;;34.53;24.52;98400.34;104853;1271;76906;-24
2022/06/09 10:23:16;;;;;;;7.10;2.00;;;;;;;34.66;23.94;98396.42;104753;1271;74394;-24
2022/06/09 10:25:55;;;;;;;5.80;1.90;;;;;;;33.76;24.18;98396.13;104861;1271;61943;-23
2022/06/09 10:28:39;;;;;;;3.20;1.70;;;;;;;32.66;25.91;98398.10;104763;1271;63032;-23
2022/06/09 10:31:45;;;;;;;2.40;1.70;;;;;;;33.47;28.58;98398.64;104744;1271;75891;-23
2022/06/09 10:34:18;;;;;;;4.80;1.60;;;;;;;33.35;24.63;98399.40;104507;1274;75867;-24
2022/06/09 10:36:45;;;;;;;2.80;2.00;;;;;;;33.31;24.96;98401.23;104808;1272;75370;-23
2022/06/09 10:39:34;;;;;;;3.90;2.00;;;;;;;33.59;26.27;98395.30;104873;1271;62168;-23
2022/06/09 10:42:45;;;;;;;4.70;1.80;;;;;;;33.65;25.97;98396.94;104789;1271;62734;-24
2022/06/09 10:45:23;;;;;;;3.30;1.70;;;;;;;32.75;26.28;98397.73;104923;1271;75657;-23
2022/06/09 10:56:35;;;;;;;2.70;1.50;;;;;;;34.47;25.69;98392.98;104776;1271;62074;-24
2022/06/09 10:59:13;;;;;;;4.40;1.80;;;;;;;34.33;25.77;98387.14;104714;1272;75180;-25
2022/06/09 11:01:40;;;;;;;3.40;1.60;;;;;;;34.06;25.11;98396.73;104682;1271;76155;-24
2022/06/09 11:04:13;;;;;;;4.40;1.60;;;;;;;33.57;22.87;98393.42;104757;1271;73754;-24
2022/06/09 11:07:19;;;;;;;4.40;1.60;;;;;;;33.20;25.60;98394.64;104740;1271;62156;-24
2022/06/09 11:09:53;;;;;;;1.60;1.30;;;;;;;32.66;25.62;98393.79;104699;1271;61685;-24
2022/06/09 11:12:59;;;;;;;4.20;1.40;;;;;;;32.40;25.56;98391.38;104796;1271;75655;-24
2022/06/09 11:15:35;;;;;;;3.30;1.70;;;;;;;32.67;25.92;98390.23;104894;1271;77079;-24
2022/06/09 11:18:14;;;;;;;2.10;1.70;;;;;;;32.93;25.89;98391.02;104723;1271;74467;-24
2022/06/09 11:20:49;;;;;;;3.40;1.50;;;;;;;32.75;25.68;98389.16;104728;1271;63456;-24
2022/06/09 11:23:28;;;;;;;2.40;1.70;;;;;;;32.60;25.31;98387.41;104745;1272;61711;-24
2022/06/09 11:26:11;;;;;;;6.10;2.00;;;;;;;32.86;27.09;98388.46;104687;1271;75593;-24
2022/06/09 11:28:48;;;;;;;2.10;1.60;;;;;;;32.70;26.82;98387.94;104733;1271;77058;-24
2022/06/09 11:31:27;;;;;;;3.50;1.60;;;;;;;32.33;25.95;98387.55;104768;1271;74156;-24
2022/06/09 11:34:05;;;;;;;4.70;1.60;;;;;;;31.43;26.34;98388.40;104744;1272;62905;-24
2022/06/09 11:36:55;;;;;;;4.00;1.70;;;;;;;30.78;28.86;98390.99;104866;1271;63025;-24
2022/06/09 11:39:23;;;;;;;2.80;1.70;;;;;;;31.23;28.92;98384.51;105110;1271;76656;-25
2022/06/09 11:42:02;;;;;;;2.70;1.70;;;;;;;31.85;27.85;98378.45;104812;1271;75126;-23
2022/06/09 11:44:35;;;;;;;4.80;1.80;;;;;;;32.05;26.40;98379.90;104914;1271;75447;-24
2022/06/09 11:47:10;;;;;;;2.10;1.50;;;;;;;31.82;26.85;98381.55;104716;1271;63318;-24
2022/06/09 11:49:51;;;;;;;3.60;1.80;;;;;;;32.05;29.43;98379.58;104849;1271;61969;-24
2022/06/09 11:52:21;;;;;;;2.80;1.60;;;;;;;32.09;26.82;98381.17;104766;1271;76582;-24
2022/06/09 11:54:48;;;;;;;4.10;1.60;;;;;;;31.82;27.66;98380.80;104808;1271;77119;-24
2022/06/09 11:57:34;;;;;;;2.40;1.40;;;;;;;31.43;27.31;98383.53;104733;1271;74877;-24
2022/06/09 12:00:26;;;;;;;2.30;1.50;;;;;;;30.99;28.11;98386.92;104725;1271;61924;-24
2022/06/09 12:03:13;;;;;;;4.10;1.90;;;;;;;30.73;27.72;98385.53;104834;1271;62052;-24
2022/06/09 12:05:49;;;;;;;4.00;1.50;;;;;;;30.98;26.88;98379.14;105092;1271;76608;-24
2022/06/09 12:08:34;;;;;;;4.80;1.40;;;;;;;31.05;26.19;98378.08;104900;1271;77101;-24
2022/06/09 12:11:11;;;;;;;5.50;1.70;;;;;;;31.38;24.99;98373.84;105013;1271;75435;-24
2022/06/09 12:13:44;;;;;;;2.00;1.30;;;;;;;31.29;26.56;98378.09;104842;1271;62014;-24